sensor_id;sensor_type;location;lat;lon;timestamp;P1;durP1;ratioP1;P2;durP2;ratioP2
583;SDS011;27024;54.068;12.116;2023-06-10T00:00:46;6.80;;;1.50;;
583;SDS011;27024;54.068;12.116;2023-06-10T00:03:15;7.50;;;1.23;;
583;SDS011;27024;54.068;12.116;2023-06-10T00:05:44;4.70;;;1.25;;
583;SDS011;27024;54.068;12.116;2023-06-10T00:08:13;7.72;;;1.20;;
583;SDS011;27024;54.068;12.116;2023-06-10T00:10:43;6.85;;;1.38;;
583;SDS011;27024;54.068;12.116;2023-06-10T00:13:13;9.18;;;1.45;;
583;SDS011;27024;54.068;12.116;2023-06-10T00:15:41;8.45;;;1.55;;
583;SDS011;27024;54.068;12.116;2023-06-10T00:18:10;4.78;;;1.20;;
583;SDS011;27024;54.068;12.116;2023-06-10T00:20:40;7.43;;;1.48;;
583;SDS011;27024;54.068;12.116;2023-06-10T00:23:09;8.23;;;1.63;;
583;SDS011;27024;54.068;12.116;2023-06-10T00:25:38;6.45;;;1.00;;
583;SDS011;27024;54.068;12.116;2023-06-10T00:28:07;7.00;;;1.35;;
583;SDS011;27024;54.068;12.116;2023-06-10T00:30:36;10.43;;;1.55;;
583;SDS011;27024;54.068;12.116;2023-06-10T00:33:04;6.07;;;1.15;;
583;SDS011;27024;54.068;12.116;2023-06-10T00:35:34;5.28;;;1.27;;
583;SDS011;27024;54.068;12.116;2023-06-10T00:38:03;7.18;;;1.20;;
583;SDS011;27024;54.068;12.116;2023-06-10T00:40:33;6.53;;;0.80;;
583;SDS011;27024;54.068;12.116;2023-06-10T00:43:07;9.63;;;1.40;;
583;SDS011;27024;54.068;12.116;2023-06-10T00:45:36;5.18;;;0.90;;
583;SDS011;27024;54.068;12.116;2023-06-10T00:48:05;8.52;;;1.40;;
583;SDS011;27024;54.068;12.116;2023-06-10T00:50:34;7.82;;;1.25;;
583;SDS011;27024;54.068;12.116;2023-06-10T00:53:06;7.43;;;1.23;;
583;SDS011;27024;54.068;12.116;2023-06-10T00:55:35;6.00;;;1.63;;
583;SDS011;27024;54.068;12.116;2023-06-10T00:58:05;8.50;;;1.13;;
583;SDS011;27024;54.068;12.116;2023-06-10T01:00:34;6.85;;;1.23;;
583;SDS011;27024;54.068;12.116;2023-06-10T01:03:03;4.35;;;0.80;;
583;SDS011;27024;54.068;12.116;2023-06-10T01:05:38;6.88;;;1.05;;
583;SDS011;27024;54.068;12.116;2023-06-10T01:13:18;7.55;;;0.88;;
583;SDS011;27024;54.068;12.116;2023-06-10T01:15:53;7.47;;;1.40;;
583;SDS011;27024;54.068;12.116;2023-06-10T01:18:29;10.35;;;1.13;;
583;SDS011;27024;54.068;12.116;2023-06-10T01:21:00;7.28;;;1.02;;
583;SDS011;27024;54.068;12.116;2023-06-10T01:23:29;7.68;;;1.15;;
583;SDS011;27024;54.068;12.116;2023-06-10T01:26:06;11.13;;;1.23;;
583;SDS011;27024;54.068;12.116;2023-06-10T01:34:26;6.05;;;0.93;;
583;SDS011;27024;54.068;12.116;2023-06-10T01:36:58;6.50;;;1.05;;
583;SDS011;27024;54.068;12.116;2023-06-10T01:39:28;6.80;;;0.88;;
583;SDS011;27024;54.068;12.116;2023-06-10T01:41:57;7.40;;;0.93;;
583;SDS011;27024;54.068;12.116;2023-06-10T01:44:26;11.32;;;1.73;;
583;SDS011;27024;54.068;12.116;2023-06-10T01:46:56;8.75;;;0.95;;
583;SDS011;27024;54.068;12.116;2023-06-10T01:49:26;6.47;;;1.10;;
583;SDS011;27024;54.068;12.116;2023-06-10T01:51:58;4.45;;;1.20;;
583;SDS011;27024;54.068;12.116;2023-06-10T01:54:27;8.52;;;1.40;;
583;SDS011;27024;54.068;12.116;2023-06-10T01:56:57;10.50;;;1.40;;
583;SDS011;27024;54.068;12.116;2023-06-10T01:59:27;8.60;;;0.93;;
583;SDS011;27024;54.068;12.116;2023-06-10T02:01:57;10.23;;;1.10;;
583;SDS011;27024;54.068;12.116;2023-06-10T02:04:27;7.97;;;1.17;;
583;SDS011;27024;54.068;12.116;2023-06-10T02:06:56;6.97;;;1.35;;
583;SDS011;27024;54.068;12.116;2023-06-10T02:09:26;7.00;;;0.98;;
583;SDS011;27024;54.068;12.116;2023-06-10T02:11:57;5.00;;;1.23;;
583;SDS011;27024;54.068;12.116;2023-06-10T02:14:27;7.72;;;1.15;;
583;SDS011;27024;54.068;12.116;2023-06-10T02:16:57;5.47;;;1.00;;
583;SDS011;27024;54.068;12.116;2023-06-10T02:19:27;7.95;;;1.00;;
583;SDS011;27024;54.068;12.116;2023-06-10T02:21:57;4.95;;;0.82;;
583;SDS011;27024;54.068;12.116;2023-06-10T02:24:26;7.18;;;1.05;;
583;SDS011;27024;54.068;12.116;2023-06-10T02:26:56;4.35;;;0.93;;
583;SDS011;27024;54.068;12.116;2023-06-10T02:29:26;5.97;;;1.13;;
583;SDS011;27024;54.068;12.116;2023-06-10T02:31:56;6.50;;;1.30;;
583;SDS011;27024;54.068;12.116;2023-06-10T02:34:25;6.53;;;0.98;;
583;SDS011;27024;54.068;12.116;2023-06-10T02:36:54;6.75;;;1.23;;
583;SDS011;27024;54.068;12.116;2023-06-10T02:39:24;4.38;;;0.90;;
583;SDS011;27024;54.068;12.116;2023-06-10T02:41:54;6.07;;;1.10;;
583;SDS011;27024;54.068;12.116;2023-06-10T02:44:24;6.28;;;0.90;;
583;SDS011;27024;54.068;12.116;2023-06-10T02:46:54;6.30;;;0.93;;
583;SDS011;27024;54.068;12.116;2023-06-10T02:49:23;9.00;;;1.23;;
583;SDS011;27024;54.068;12.116;2023-06-10T02:51:54;4.50;;;0.70;;
583;SDS011;27024;54.068;12.116;2023-06-10T02:56:56;5.50;;;0.95;;
583;SDS011;27024;54.068;12.116;2023-06-10T02:59:26;6.45;;;0.90;;
583;SDS011;27024;54.068;12.116;2023-06-10T03:01:58;10.32;;;1.30;;
583;SDS011;27024;54.068;12.116;2023-06-10T03:04:30;9.82;;;0.90;;
583;SDS011;27024;54.068;12.116;2023-06-10T03:07:00;9.32;;;1.40;;
583;SDS011;27024;54.068;12.116;2023-06-10T03:09:33;7.43;;;1.00;;
583;SDS011;27024;54.068;12.116;2023-06-10T03:11:59;9.85;;;1.20;;
583;SDS011;27024;54.068;12.116;2023-06-10T03:14:28;7.65;;;1.10;;
583;SDS011;27024;54.068;12.116;2023-06-10T03:16:58;5.85;;;0.70;;
583;SDS011;27024;54.068;12.116;2023-06-10T03:19:29;6.78;;;1.02;;
583;SDS011;27024;54.068;12.116;2023-06-10T03:22:09;8.00;;;0.80;;
583;SDS011;27024;54.068;12.116;2023-06-10T03:24:40;7.63;;;1.15;;
583;SDS011;27024;54.068;12.116;2023-06-10T03:27:10;6.75;;;1.05;;
583;SDS011;27024;54.068;12.116;2023-06-10T03:29:40;5.20;;;0.85;;
583;SDS011;27024;54.068;12.116;2023-06-10T03:32:10;8.27;;;1.33;;
583;SDS011;27024;54.068;12.116;2023-06-10T03:34:40;5.30;;;1.00;;
583;SDS011;27024;54.068;12.116;2023-06-10T03:37:10;5.80;;;1.23;;
583;SDS011;27024;54.068;12.116;2023-06-10T03:39:40;7.38;;;1.10;;
583;SDS011;27024;54.068;12.116;2023-06-10T03:42:10;6.82;;;1.08;;
583;SDS011;27024;54.068;12.116;2023-06-10T03:44:39;4.43;;;1.02;;
583;SDS011;27024;54.068;12.116;2023-06-10T03:47:09;5.93;;;1.05;;
583;SDS011;27024;54.068;12.116;2023-06-10T03:49:39;5.72;;;0.90;;
583;SDS011;27024;54.068;12.116;2023-06-10T03:52:09;5.65;;;1.05;;
583;SDS011;27024;54.068;12.116;2023-06-10T03:54:39;4.57;;;0.77;;
583;SDS011;27024;54.068;12.116;2023-06-10T03:57:09;5.60;;;0.98;;
583;SDS011;27024;54.068;12.116;2023-06-10T03:59:39;8.77;;;1.00;;
583;SDS011;27024;54.068;12.116;2023-06-10T04:02:09;7.25;;;1.05;;
583;SDS011;27024;54.068;12.116;2023-06-10T04:04:39;6.05;;;1.10;;
583;SDS011;27024;54.068;12.116;2023-06-10T04:07:12;9.30;;;1.45;;
583;SDS011;27024;54.068;12.116;2023-06-10T04:09:43;7.28;;;1.10;;
583;SDS011;27024;54.068;12.116;2023-06-10T04:12:13;6.95;;;1.20;;
583;SDS011;27024;54.068;12.116;2023-06-10T04:14:43;9.07;;;1.00;;
583;SDS011;27024;54.068;12.116;2023-06-10T04:17:13;5.10;;;0.93;;
583;SDS011;27024;54.068;12.116;2023-06-10T04:19:43;4.13;;;1.02;;
583;SDS011;27024;54.068;12.116;2023-06-10T04:22:13;6.07;;;1.13;;
583;SDS011;27024;54.068;12.116;2023-06-10T04:24:43;8.32;;;1.00;;
583;SDS011;27024;54.068;12.116;2023-06-10T04:27:13;5.80;;;1.13;;
583;SDS011;27024;54.068;12.116;2023-06-10T04:29:42;6.90;;;1.27;;
583;SDS011;27024;54.068;12.116;2023-06-10T04:32:12;6.15;;;1.50;;
583;SDS011;27024;54.068;12.116;2023-06-10T04:34:42;8.30;;;1.05;;
583;SDS011;27024;54.068;12.116;2023-06-10T04:37:12;9.15;;;1.40;;
583;SDS011;27024;54.068;12.116;2023-06-10T04:39:42;7.13;;;0.90;;
583;SDS011;27024;54.068;12.116;2023-06-10T04:42:12;5.18;;;1.02;;
583;SDS011;27024;54.068;12.116;2023-06-10T04:44:42;8.85;;;1.10;;
583;SDS011;27024;54.068;12.116;2023-06-10T04:47:12;5.32;;;1.10;;
583;SDS011;27024;54.068;12.116;2023-06-10T04:49:42;5.93;;;1.00;;
583;SDS011;27024;54.068;12.116;2023-06-10T04:52:12;6.50;;;0.98;;
583;SDS011;27024;54.068;12.116;2023-06-10T04:54:47;5.35;;;1.08;;
583;SDS011;27024;54.068;12.116;2023-06-10T04:57:17;6.80;;;1.50;;
583;SDS011;27024;54.068;12.116;2023-06-10T04:59:47;6.00;;;1.13;;
583;SDS011;27024;54.068;12.116;2023-06-10T05:02:17;6.75;;;1.02;;
583;SDS011;27024;54.068;12.116;2023-06-10T05:04:47;6.53;;;1.30;;
583;SDS011;27024;54.068;12.116;2023-06-10T05:07:17;5.53;;;1.20;;
583;SDS011;27024;54.068;12.116;2023-06-10T05:09:47;6.10;;;1.35;;
583;SDS011;27024;54.068;12.116;2023-06-10T05:12:17;6.35;;;1.50;;
583;SDS011;27024;54.068;12.116;2023-06-10T05:14:47;6.55;;;1.48;;
583;SDS011;27024;54.068;12.116;2023-06-10T05:17:16;5.28;;;0.95;;
583;SDS011;27024;54.068;12.116;2023-06-10T05:19:46;6.68;;;1.20;;
583;SDS011;27024;54.068;12.116;2023-06-10T05:22:16;5.05;;;1.40;;
583;SDS011;27024;54.068;12.116;2023-06-10T05:24:47;8.90;;;1.60;;
583;SDS011;27024;54.068;12.116;2023-06-10T05:27:17;9.88;;;1.58;;
583;SDS011;27024;54.068;12.116;2023-06-10T05:29:44;7.72;;;1.65;;
583;SDS011;27024;54.068;12.116;2023-06-10T05:32:11;5.18;;;1.20;;
583;SDS011;27024;54.068;12.116;2023-06-10T05:34:38;4.95;;;1.30;;
583;SDS011;27024;54.068;12.116;2023-06-10T05:37:05;8.00;;;1.67;;
583;SDS011;27024;54.068;12.116;2023-06-10T05:39:32;8.07;;;1.40;;
583;SDS011;27024;54.068;12.116;2023-06-10T05:41:59;9.25;;;1.80;;
583;SDS011;27024;54.068;12.116;2023-06-10T05:44:27;6.20;;;1.20;;
583;SDS011;27024;54.068;12.116;2023-06-10T05:46:54;7.95;;;1.27;;
583;SDS011;27024;54.068;12.116;2023-06-10T05:49:21;6.80;;;1.83;;
583;SDS011;27024;54.068;12.116;2023-06-10T05:51:53;7.57;;;1.60;;
583;SDS011;27024;54.068;12.116;2023-06-10T05:54:20;5.35;;;1.27;;
583;SDS011;27024;54.068;12.116;2023-06-10T05:56:48;6.70;;;1.30;;
583;SDS011;27024;54.068;12.116;2023-06-10T05:59:16;6.93;;;1.50;;
583;SDS011;27024;54.068;12.116;2023-06-10T06:01:42;5.50;;;1.40;;
583;SDS011;27024;54.068;12.116;2023-06-10T06:04:09;6.43;;;1.55;;
583;SDS011;27024;54.068;12.116;2023-06-10T06:06:38;5.38;;;1.65;;
583;SDS011;27024;54.068;12.116;2023-06-10T06:09:06;9.10;;;1.45;;
583;SDS011;27024;54.068;12.116;2023-06-10T06:11:34;8.23;;;1.50;;
583;SDS011;27024;54.068;12.116;2023-06-10T06:14:01;9.98;;;1.83;;
583;SDS011;27024;54.068;12.116;2023-06-10T06:16:28;7.78;;;1.70;;
583;SDS011;27024;54.068;12.116;2023-06-10T06:18:55;6.70;;;1.30;;
583;SDS011;27024;54.068;12.116;2023-06-10T06:21:22;10.48;;;1.30;;
583;SDS011;27024;54.068;12.116;2023-06-10T06:23:49;6.18;;;1.38;;
583;SDS011;27024;54.068;12.116;2023-06-10T06:26:16;6.20;;;1.60;;
583;SDS011;27024;54.068;12.116;2023-06-10T06:28:43;6.72;;;1.42;;
583;SDS011;27024;54.068;12.116;2023-06-10T06:31:10;5.20;;;1.45;;
583;SDS011;27024;54.068;12.116;2023-06-10T06:33:37;6.68;;;1.98;;
583;SDS011;27024;54.068;12.116;2023-06-10T06:36:04;9.48;;;1.58;;
583;SDS011;27024;54.068;12.116;2023-06-10T06:38:31;7.20;;;1.35;;
583;SDS011;27024;54.068;12.116;2023-06-10T06:40:58;7.25;;;2.25;;
583;SDS011;27024;54.068;12.116;2023-06-10T06:45:59;6.22;;;1.60;;
583;SDS011;27024;54.068;12.116;2023-06-10T06:48:26;7.55;;;1.80;;
583;SDS011;27024;54.068;12.116;2023-06-10T06:50:53;7.15;;;1.38;;
583;SDS011;27024;54.068;12.116;2023-06-10T06:53:22;6.95;;;1.65;;
583;SDS011;27024;54.068;12.116;2023-06-10T06:55:49;7.18;;;1.80;;
583;SDS011;27024;54.068;12.116;2023-06-10T06:58:16;7.38;;;1.83;;
583;SDS011;27024;54.068;12.116;2023-06-10T07:00:43;14.38;;;2.13;;
583;SDS011;27024;54.068;12.116;2023-06-10T07:03:10;7.97;;;1.98;;
583;SDS011;27024;54.068;12.116;2023-06-10T07:05:38;6.80;;;1.42;;
583;SDS011;27024;54.068;12.116;2023-06-10T07:08:05;6.28;;;1.60;;
583;SDS011;27024;54.068;12.116;2023-06-10T07:10:32;5.80;;;1.98;;
583;SDS011;27024;54.068;12.116;2023-06-10T07:12:59;6.65;;;1.60;;
583;SDS011;27024;54.068;12.116;2023-06-10T07:15:26;6.00;;;1.58;;
583;SDS011;27024;54.068;12.116;2023-06-10T07:17:53;7.03;;;1.77;;
583;SDS011;27024;54.068;12.116;2023-06-10T07:20:20;5.28;;;1.85;;
583;SDS011;27024;54.068;12.116;2023-06-10T07:22:47;6.35;;;1.70;;
583;SDS011;27024;54.068;12.116;2023-06-10T07:25:14;11.00;;;2.30;;
583;SDS011;27024;54.068;12.116;2023-06-10T07:27:42;9.27;;;2.08;;
583;SDS011;27024;54.068;12.116;2023-06-10T07:30:09;6.75;;;1.65;;
583;SDS011;27024;54.068;12.116;2023-06-10T07:32:37;6.10;;;1.80;;
583;SDS011;27024;54.068;12.116;2023-06-10T07:35:06;7.63;;;2.03;;
583;SDS011;27024;54.068;12.116;2023-06-10T07:37:35;7.10;;;2.17;;
583;SDS011;27024;54.068;12.116;2023-06-10T07:40:03;7.05;;;2.22;;
583;SDS011;27024;54.068;12.116;2023-06-10T07:42:31;7.38;;;1.92;;
583;SDS011;27024;54.068;12.116;2023-06-10T07:44:59;9.68;;;2.10;;
583;SDS011;27024;54.068;12.116;2023-06-10T07:47:26;9.70;;;1.77;;
583;SDS011;27024;54.068;12.116;2023-06-10T07:49:53;9.65;;;2.22;;
583;SDS011;27024;54.068;12.116;2023-06-10T07:52:20;7.60;;;1.85;;
583;SDS011;27024;54.068;12.116;2023-06-10T07:54:47;10.60;;;2.85;;
583;SDS011;27024;54.068;12.116;2023-06-10T07:57:14;7.18;;;2.40;;
583;SDS011;27024;54.068;12.116;2023-06-10T07:59:41;7.45;;;1.83;;
583;SDS011;27024;54.068;12.116;2023-06-10T08:02:10;8.93;;;2.45;;
583;SDS011;27024;54.068;12.116;2023-06-10T08:04:37;10.57;;;2.40;;
583;SDS011;27024;54.068;12.116;2023-06-10T08:07:04;7.10;;;2.10;;
583;SDS011;27024;54.068;12.116;2023-06-10T08:09:31;9.68;;;2.03;;
583;SDS011;27024;54.068;12.116;2023-06-10T08:11:58;9.27;;;1.95;;
583;SDS011;27024;54.068;12.116;2023-06-10T08:14:25;6.03;;;1.88;;
583;SDS011;27024;54.068;12.116;2023-06-10T08:16:52;6.63;;;2.33;;
583;SDS011;27024;54.068;12.116;2023-06-10T08:19:19;9.18;;;3.15;;
583;SDS011;27024;54.068;12.116;2023-06-10T08:21:46;7.97;;;2.22;;
583;SDS011;27024;54.068;12.116;2023-06-10T08:24:13;11.00;;;2.58;;
583;SDS011;27024;54.068;12.116;2023-06-10T08:26:43;6.78;;;2.42;;
583;SDS011;27024;54.068;12.116;2023-06-10T08:29:11;8.02;;;2.75;;
583;SDS011;27024;54.068;12.116;2023-06-10T08:31:42;9.00;;;3.08;;
583;SDS011;27024;54.068;12.116;2023-06-10T08:34:09;7.75;;;3.28;;
583;SDS011;27024;54.068;12.116;2023-06-10T08:36:36;7.18;;;2.50;;
583;SDS011;27024;54.068;12.116;2023-06-10T08:39:03;8.00;;;3.38;;
583;SDS011;27024;54.068;12.116;2023-06-10T08:41:31;9.52;;;4.00;;
583;SDS011;27024;54.068;12.116;2023-06-10T08:44:04;8.65;;;2.88;;
583;SDS011;27024;54.068;12.116;2023-06-10T08:46:47;7.30;;;2.60;;
583;SDS011;27024;54.068;12.116;2023-06-10T08:49:17;9.18;;;2.20;;
583;SDS011;27024;54.068;12.116;2023-06-10T08:51:48;6.07;;;2.33;;
583;SDS011;27024;54.068;12.116;2023-06-10T08:54:25;8.60;;;2.42;;
583;SDS011;27024;54.068;12.116;2023-06-10T08:56:55;6.72;;;2.42;;
583;SDS011;27024;54.068;12.116;2023-06-10T08:59:23;7.25;;;2.58;;
583;SDS011;27024;54.068;12.116;2023-06-10T09:01:51;7.78;;;2.42;;
583;SDS011;27024;54.068;12.116;2023-06-10T09:04:19;5.97;;;2.22;;
583;SDS011;27024;54.068;12.116;2023-06-10T09:06:47;9.70;;;2.33;;
583;SDS011;27024;54.068;12.116;2023-06-10T09:09:16;8.20;;;2.50;;
583;SDS011;27024;54.068;12.116;2023-06-10T09:11:46;6.95;;;2.20;;
583;SDS011;27024;54.068;12.116;2023-06-10T09:14:13;6.75;;;2.38;;
583;SDS011;27024;54.068;12.116;2023-06-10T09:16:40;9.63;;;2.63;;
583;SDS011;27024;54.068;12.116;2023-06-10T09:19:07;9.15;;;1.98;;
583;SDS011;27024;54.068;12.116;2023-06-10T09:21:34;10.10;;;2.20;;
583;SDS011;27024;54.068;12.116;2023-06-10T09:24:05;10.13;;;2.25;;
583;SDS011;27024;54.068;12.116;2023-06-10T09:26:32;8.35;;;2.30;;
583;SDS011;27024;54.068;12.116;2023-06-10T09:29:03;7.38;;;2.10;;
583;SDS011;27024;54.068;12.116;2023-06-10T09:31:32;6.45;;;2.28;;
583;SDS011;27024;54.068;12.116;2023-06-10T09:34:05;7.03;;;2.00;;
583;SDS011;27024;54.068;12.116;2023-06-10T09:39:00;8.90;;;2.10;;
583;SDS011;27024;54.068;12.116;2023-06-10T09:41:39;9.75;;;2.38;;
583;SDS011;27024;54.068;12.116;2023-06-10T09:44:11;9.07;;;2.85;;
583;SDS011;27024;54.068;12.116;2023-06-10T09:46:42;6.97;;;2.10;;
583;SDS011;27024;54.068;12.116;2023-06-10T09:49:12;11.00;;;2.60;;
583;SDS011;27024;54.068;12.116;2023-06-10T09:51:48;9.57;;;2.72;;
583;SDS011;27024;54.068;12.116;2023-06-10T09:54:19;7.55;;;2.15;;
583;SDS011;27024;54.068;12.116;2023-06-10T09:56:51;7.25;;;2.40;;
583;SDS011;27024;54.068;12.116;2023-06-10T09:59:28;11.50;;;2.33;;
583;SDS011;27024;54.068;12.116;2023-06-10T10:01:57;7.68;;;2.33;;
583;SDS011;27024;54.068;12.116;2023-06-10T10:04:24;9.77;;;2.15;;
583;SDS011;27024;54.068;12.116;2023-06-10T10:06:52;6.55;;;2.38;;
583;SDS011;27024;54.068;12.116;2023-06-10T10:09:19;7.85;;;2.22;;
583;SDS011;27024;54.068;12.116;2023-06-10T10:11:46;5.43;;;2.20;;
583;SDS011;27024;54.068;12.116;2023-06-10T10:14:15;8.05;;;2.30;;
583;SDS011;27024;54.068;12.116;2023-06-10T10:16:43;10.32;;;2.28;;
583;SDS011;27024;54.068;12.116;2023-06-10T10:19:11;6.07;;;2.00;;
583;SDS011;27024;54.068;12.116;2023-06-10T10:21:47;7.13;;;2.33;;
583;SDS011;27024;54.068;12.116;2023-06-10T10:24:25;7.55;;;2.50;;
583;SDS011;27024;54.068;12.116;2023-06-10T10:27:07;7.47;;;2.75;;
583;SDS011;27024;54.068;12.116;2023-06-10T10:29:40;7.93;;;2.45;;
583;SDS011;27024;54.068;12.116;2023-06-10T10:32:12;7.28;;;2.75;;
583;SDS011;27024;54.068;12.116;2023-06-10T10:34:56;8.35;;;2.63;;
583;SDS011;27024;54.068;12.116;2023-06-10T10:37:27;8.38;;;2.50;;
583;SDS011;27024;54.068;12.116;2023-06-10T10:39:54;7.05;;;2.92;;
583;SDS011;27024;54.068;12.116;2023-06-10T10:42:23;7.65;;;2.47;;
583;SDS011;27024;54.068;12.116;2023-06-10T10:44:50;8.02;;;2.33;;
583;SDS011;27024;54.068;12.116;2023-06-10T10:47:19;6.43;;;2.80;;
583;SDS011;27024;54.068;12.116;2023-06-10T10:49:48;7.15;;;2.72;;
583;SDS011;27024;54.068;12.116;2023-06-10T10:52:19;6.00;;;2.50;;
583;SDS011;27024;54.068;12.116;2023-06-10T10:54:46;5.70;;;2.35;;
583;SDS011;27024;54.068;12.116;2023-06-10T11:02:19;9.13;;;2.50;;
583;SDS011;27024;54.068;12.116;2023-06-10T11:05:07;9.05;;;3.05;;
583;SDS011;27024;54.068;12.116;2023-06-10T11:07:35;6.80;;;2.33;;
583;SDS011;27024;54.068;12.116;2023-06-10T11:15:43;8.77;;;2.75;;
583;SDS011;27024;54.068;12.116;2023-06-10T11:31:19;6.70;;;2.65;;
583;SDS011;27024;54.068;12.116;2023-06-10T11:33:48;7.35;;;2.30;;
583;SDS011;27024;54.068;12.116;2023-06-10T11:36:20;5.35;;;2.47;;
583;SDS011;27024;54.068;12.116;2023-06-10T11:38:48;5.53;;;2.75;;
583;SDS011;27024;54.068;12.116;2023-06-10T11:41:15;6.60;;;2.83;;
583;SDS011;27024;54.068;12.116;2023-06-10T11:43:44;5.68;;;2.78;;
583;SDS011;27024;54.068;12.116;2023-06-10T11:46:12;7.25;;;2.30;;
583;SDS011;27024;54.068;12.116;2023-06-10T11:48:53;5.90;;;2.63;;
583;SDS011;27024;54.068;12.116;2023-06-10T11:51:25;7.15;;;2.38;;
583;SDS011;27024;54.068;12.116;2023-06-10T11:53:55;6.47;;;2.13;;
583;SDS011;27024;54.068;12.116;2023-06-10T11:56:23;4.90;;;2.22;;
583;SDS011;27024;54.068;12.116;2023-06-10T11:58:59;4.70;;;2.10;;
583;SDS011;27024;54.068;12.116;2023-06-10T12:01:31;6.72;;;2.25;;
583;SDS011;27024;54.068;12.116;2023-06-10T12:04:01;6.82;;;2.30;;
583;SDS011;27024;54.068;12.116;2023-06-10T12:09:07;6.65;;;2.58;;
583;SDS011;27024;54.068;12.116;2023-06-10T12:12:00;6.60;;;2.25;;
583;SDS011;27024;54.068;12.116;2023-06-10T12:20:01;6.05;;;2.28;;
583;SDS011;27024;54.068;12.116;2023-06-10T12:22:50;6.95;;;2.88;;
583;SDS011;27024;54.068;12.116;2023-06-10T12:25:17;6.18;;;2.28;;
583;SDS011;27024;54.068;12.116;2023-06-10T12:27:52;4.25;;;2.40;;
583;SDS011;27024;54.068;12.116;2023-06-10T12:30:25;5.40;;;2.35;;
583;SDS011;27024;54.068;12.116;2023-06-10T12:32:53;5.95;;;2.28;;
583;SDS011;27024;54.068;12.116;2023-06-10T12:35:22;5.85;;;2.17;;
583;SDS011;27024;54.068;12.116;2023-06-10T12:37:54;7.07;;;2.40;;
583;SDS011;27024;54.068;12.116;2023-06-10T12:40:29;6.32;;;2.50;;
583;SDS011;27024;54.068;12.116;2023-06-10T12:43:00;9.90;;;2.22;;
583;SDS011;27024;54.068;12.116;2023-06-10T12:45:28;5.20;;;2.20;;
583;SDS011;27024;54.068;12.116;2023-06-10T12:50:38;6.03;;;2.00;;
583;SDS011;27024;54.068;12.116;2023-06-10T12:53:07;9.10;;;2.50;;
583;SDS011;27024;54.068;12.116;2023-06-10T12:55:34;6.10;;;2.30;;
583;SDS011;27024;54.068;12.116;2023-06-10T12:58:02;4.38;;;2.50;;
583;SDS011;27024;54.068;12.116;2023-06-10T13:00:29;5.70;;;2.33;;
583;SDS011;27024;54.068;12.116;2023-06-10T13:02:57;4.40;;;2.33;;
583;SDS011;27024;54.068;12.116;2023-06-10T13:05:27;5.13;;;2.38;;
583;SDS011;27024;54.068;12.116;2023-06-10T13:07:55;6.88;;;2.30;;
583;SDS011;27024;54.068;12.116;2023-06-10T13:10:21;4.32;;;2.03;;
583;SDS011;27024;54.068;12.116;2023-06-10T13:12:51;4.10;;;2.30;;
583;SDS011;27024;54.068;12.116;2023-06-10T13:15:19;6.68;;;2.58;;
583;SDS011;27024;54.068;12.116;2023-06-10T13:17:46;5.28;;;2.20;;
583;SDS011;27024;54.068;12.116;2023-06-10T13:22:43;6.40;;;2.05;;
583;SDS011;27024;54.068;12.116;2023-06-10T13:25:10;6.40;;;2.30;;
583;SDS011;27024;54.068;12.116;2023-06-10T13:27:38;6.05;;;2.50;;
583;SDS011;27024;54.068;12.116;2023-06-10T13:30:06;5.50;;;2.13;;
583;SDS011;27024;54.068;12.116;2023-06-10T13:32:33;7.90;;;2.53;;
583;SDS011;27024;54.068;12.116;2023-06-10T13:35:00;4.13;;;2.33;;
583;SDS011;27024;54.068;12.116;2023-06-10T13:37:30;5.60;;;2.20;;
583;SDS011;27024;54.068;12.116;2023-06-10T13:39:57;6.03;;;2.55;;
583;SDS011;27024;54.068;12.116;2023-06-10T13:42:24;6.85;;;2.55;;
583;SDS011;27024;54.068;12.116;2023-06-10T13:44:53;7.43;;;2.38;;
583;SDS011;27024;54.068;12.116;2023-06-10T13:47:19;7.00;;;2.33;;
583;SDS011;27024;54.068;12.116;2023-06-10T13:49:47;5.25;;;2.42;;
583;SDS011;27024;54.068;12.116;2023-06-10T13:52:14;5.93;;;2.53;;
583;SDS011;27024;54.068;12.116;2023-06-10T13:54:41;5.57;;;2.22;;
583;SDS011;27024;54.068;12.116;2023-06-10T13:57:08;7.22;;;2.50;;
583;SDS011;27024;54.068;12.116;2023-06-10T13:59:36;8.73;;;2.83;;
583;SDS011;27024;54.068;12.116;2023-06-10T14:02:04;5.95;;;2.22;;
583;SDS011;27024;54.068;12.116;2023-06-10T14:04:32;6.30;;;2.15;;
583;SDS011;27024;54.068;12.116;2023-06-10T14:06:59;8.00;;;2.53;;
583;SDS011;27024;54.068;12.116;2023-06-10T14:09:26;7.20;;;2.75;;
583;SDS011;27024;54.068;12.116;2023-06-10T14:11:52;6.60;;;2.33;;
583;SDS011;27024;54.068;12.116;2023-06-10T14:14:20;7.30;;;2.75;;
583;SDS011;27024;54.068;12.116;2023-06-10T14:16:48;7.00;;;2.17;;
583;SDS011;27024;54.068;12.116;2023-06-10T14:19:15;7.38;;;2.40;;
583;SDS011;27024;54.068;12.116;2023-06-10T14:21:42;11.52;;;2.40;;
583;SDS011;27024;54.068;12.116;2023-06-10T14:24:09;6.90;;;2.42;;
583;SDS011;27024;54.068;12.116;2023-06-10T14:26:36;7.80;;;2.47;;
583;SDS011;27024;54.068;12.116;2023-06-10T14:29:03;5.43;;;2.38;;
583;SDS011;27024;54.068;12.116;2023-06-10T14:31:30;6.15;;;2.15;;
583;SDS011;27024;54.068;12.116;2023-06-10T14:33:57;6.95;;;2.00;;
583;SDS011;27024;54.068;12.116;2023-06-10T14:36:25;9.32;;;3.00;;
583;SDS011;27024;54.068;12.116;2023-06-10T14:38:52;5.97;;;2.22;;
583;SDS011;27024;54.068;12.116;2023-06-10T14:41:20;6.45;;;2.50;;
583;SDS011;27024;54.068;12.116;2023-06-10T14:43:48;6.28;;;2.30;;
583;SDS011;27024;54.068;12.116;2023-06-10T14:46:15;4.72;;;2.30;;
583;SDS011;27024;54.068;12.116;2023-06-10T14:48:42;8.63;;;2.30;;
583;SDS011;27024;54.068;12.116;2023-06-10T14:51:09;6.50;;;2.17;;
583;SDS011;27024;54.068;12.116;2023-06-10T14:53:36;9.30;;;2.30;;
583;SDS011;27024;54.068;12.116;2023-06-10T14:56:03;8.70;;;2.15;;
583;SDS011;27024;54.068;12.116;2023-06-10T14:58:30;4.90;;;2.03;;
583;SDS011;27024;54.068;12.116;2023-06-10T15:00:57;6.45;;;2.55;;
583;SDS011;27024;54.068;12.116;2023-06-10T15:03:24;4.93;;;2.22;;
583;SDS011;27024;54.068;12.116;2023-06-10T15:05:51;7.03;;;2.70;;
583;SDS011;27024;54.068;12.116;2023-06-10T15:08:18;7.15;;;2.42;;
583;SDS011;27024;54.068;12.116;2023-06-10T15:10:45;6.82;;;2.13;;
583;SDS011;27024;54.068;12.116;2023-06-10T15:13:12;6.53;;;2.33;;
583;SDS011;27024;54.068;12.116;2023-06-10T15:15:39;10.07;;;2.55;;
583;SDS011;27024;54.068;12.116;2023-06-10T15:18:05;4.70;;;2.00;;
583;SDS011;27024;54.068;12.116;2023-06-10T15:20:32;4.85;;;1.88;;
583;SDS011;27024;54.068;12.116;2023-06-10T15:23:00;3.28;;;2.15;;
583;SDS011;27024;54.068;12.116;2023-06-10T15:25:28;5.57;;;1.80;;
583;SDS011;27024;54.068;12.116;2023-06-10T15:27:57;8.45;;;1.83;;
583;SDS011;27024;54.068;12.116;2023-06-10T15:30:25;8.05;;;1.83;;
583;SDS011;27024;54.068;12.116;2023-06-10T15:32:51;6.75;;;2.47;;
583;SDS011;27024;54.068;12.116;2023-06-10T15:35:19;5.45;;;2.00;;
583;SDS011;27024;54.068;12.116;2023-06-10T15:37:46;6.93;;;1.75;;
583;SDS011;27024;54.068;12.116;2023-06-10T15:40:13;8.98;;;1.98;;
583;SDS011;27024;54.068;12.116;2023-06-10T15:42:40;8.73;;;1.80;;
583;SDS011;27024;54.068;12.116;2023-06-10T15:45:07;7.32;;;1.75;;
583;SDS011;27024;54.068;12.116;2023-06-10T15:47:35;5.43;;;1.60;;
583;SDS011;27024;54.068;12.116;2023-06-10T15:50:02;6.32;;;1.92;;
583;SDS011;27024;54.068;12.116;2023-06-10T15:52:29;7.50;;;1.73;;
583;SDS011;27024;54.068;12.116;2023-06-10T15:54:56;6.95;;;1.30;;
583;SDS011;27024;54.068;12.116;2023-06-10T15:57:23;4.80;;;1.85;;
583;SDS011;27024;54.068;12.116;2023-06-10T15:59:52;7.63;;;2.03;;
583;SDS011;27024;54.068;12.116;2023-06-10T16:02:20;7.25;;;1.58;;
583;SDS011;27024;54.068;12.116;2023-06-10T16:04:47;8.75;;;1.52;;
583;SDS011;27024;54.068;12.116;2023-06-10T16:07:13;9.25;;;1.40;;